sensor_id;sensor_type;location;lat;lon;timestamp;pressure;altitude;pressure_sealevel;temperature;humidity
48862;BME280;34681;49.188;-0.374;2024-02-15T00:01:47;101332.00;;;15.59;74.85
48862;BME280;34681;49.188;-0.374;2024-02-15T00:04:13;101327.75;;;15.64;74.36
48862;BME280;34681;49.188;-0.374;2024-02-15T00:06:38;101328.97;;;15.70;74.46
48862;BME280;34681;49.188;-0.374;2024-02-15T00:09:03;101330.38;;;15.74;74.37
48862;BME280;34681;49.188;-0.374;2024-02-15T00:11:29;101330.69;;;15.71;74.45
48862;BME280;34681;49.188;-0.374;2024-02-15T00:13:54;101330.91;;;15.78;74.30
48862;BME280;34681;49.188;-0.374;2024-02-15T00:16:21;101329.69;;;15.80;73.96
48862;BME280;34681;49.188;-0.374;2024-02-15T00:18:47;101328.84;;;15.80;73.88
48862;BME280;34681;49.188;-0.374;2024-02-15T00:21:12;101320.53;;;15.71;73.78
48862;BME280;34681;49.188;-0.374;2024-02-15T00:23:37;101315.00;;;15.71;73.73
48862;BME280;34681;49.188;-0.374;2024-02-15T00:26:03;101322.41;;;15.71;73.85
48862;BME280;34681;49.188;-0.374;2024-02-15T00:28:28;101322.28;;;15.72;73.95
48862;BME280;34681;49.188;-0.374;2024-02-15T00:30:53;101312.78;;;15.67;73.80
48862;BME280;34681;49.188;-0.374;2024-02-15T00:33:19;101320.03;;;15.76;73.49
48862;BME280;34681;49.188;-0.374;2024-02-15T00:35:44;101324.19;;;15.80;73.62
48862;BME280;34681;49.188;-0.374;2024-02-15T00:38:09;101318.66;;;15.80;73.41
48862;BME280;34681;49.188;-0.374;2024-02-15T00:40:35;101316.44;;;15.84;73.45
48862;BME280;34681;49.188;-0.374;2024-02-15T00:43:01;101313.88;;;15.82;73.49
48862;BME280;34681;49.188;-0.374;2024-02-15T00:45:26;101301.41;;;15.78;73.27
48862;BME280;34681;49.188;-0.374;2024-02-15T00:47:51;101301.09;;;15.81;73.28
48862;BME280;34681;49.188;-0.374;2024-02-15T00:50:17;101296.59;;;15.80;73.39
48862;BME280;34681;49.188;-0.374;2024-02-15T00:52:42;101288.84;;;15.84;73.11
48862;BME280;34681;49.188;-0.374;2024-02-15T00:55:08;101282.31;;;15.85;72.95
48862;BME280;34681;49.188;-0.374;2024-02-15T00:57:33;101286.44;;;15.81;73.05
48862;BME280;34681;49.188;-0.374;2024-02-15T00:59:58;101289.53;;;15.86;73.23
48862;BME280;34681;49.188;-0.374;2024-02-15T01:02:25;101283.00;;;15.87;72.95
48862;BME280;34681;49.188;-0.374;2024-02-15T01:04:51;101280.06;;;15.88;72.98
48862;BME280;34681;49.188;-0.374;2024-02-15T01:07:18;101278.34;;;15.87;72.86
48862;BME280;34681;49.188;-0.374;2024-02-15T01:09:43;101276.28;;;15.89;72.90
48862;BME280;34681;49.188;-0.374;2024-02-15T01:12:10;101278.53;;;15.94;72.63
48862;BME280;34681;49.188;-0.374;2024-02-15T01:14:35;101273.69;;;15.96;72.49
48862;BME280;34681;49.188;-0.374;2024-02-15T01:17:01;101273.38;;;15.99;72.41
48862;BME280;34681;49.188;-0.374;2024-02-15T01:19:26;101274.56;;;15.96;72.42
48862;BME280;34681;49.188;-0.374;2024-02-15T01:21:52;101264.56;;;15.95;72.19
48862;BME280;34681;49.188;-0.374;2024-02-15T01:24:18;101266.13;;;15.98;72.25
48862;BME280;34681;49.188;-0.374;2024-02-15T01:26:44;101272.53;;;15.98;72.20
48862;BME280;34681;49.188;-0.374;2024-02-15T01:29:09;101261.97;;;15.94;72.00
48862;BME280;34681;49.188;-0.374;2024-02-15T01:31:37;101253.88;;;15.92;72.07
48862;BME280;34681;49.188;-0.374;2024-02-15T01:34:04;101257.13;;;15.96;71.84
48862;BME280;34681;49.188;-0.374;2024-02-15T01:36:29;101249.69;;;15.88;72.40
48862;BME280;34681;49.188;-0.374;2024-02-15T01:38:54;101251.97;;;15.93;71.88
48862;BME280;34681;49.188;-0.374;2024-02-15T01:41:20;101244.19;;;15.88;71.66
48862;BME280;34681;49.188;-0.374;2024-02-15T01:43:45;101246.63;;;15.91;71.74
48862;BME280;34681;49.188;-0.374;2024-02-15T01:46:11;101245.75;;;15.91;71.56
48862;BME280;34681;49.188;-0.374;2024-02-15T01:48:37;101237.13;;;15.94;71.60
48862;BME280;34681;49.188;-0.374;2024-02-15T01:51:06;101240.09;;;16.00;71.51
48862;BME280;34681;49.188;-0.374;2024-02-15T01:53:32;101242.84;;;16.00;71.32
48862;BME280;34681;49.188;-0.374;2024-02-15T01:55:58;101243.34;;;16.04;71.29
48862;BME280;34681;49.188;-0.374;2024-02-15T01:58:25;101243.72;;;16.01;70.97
48862;BME280;34681;49.188;-0.374;2024-02-15T02:00:52;101243.34;;;15.96;71.10
48862;BME280;34681;49.188;-0.374;2024-02-15T02:03:20;101231.44;;;15.87;70.99
48862;BME280;34681;49.188;-0.374;2024-02-15T02:05:46;101231.78;;;15.84;71.06
48862;BME280;34681;49.188;-0.374;2024-02-15T02:08:11;101231.78;;;15.84;71.07
48862;BME280;34681;49.188;-0.374;2024-02-15T02:10:37;101230.53;;;15.79;71.07
48862;BME280;34681;49.188;-0.374;2024-02-15T02:13:03;101234.69;;;15.75;71.01
48862;BME280;34681;49.188;-0.374;2024-02-15T02:15:28;101235.38;;;15.77;71.38
48862;BME280;34681;49.188;-0.374;2024-02-15T02:17:57;101221.75;;;15.75;70.97
48862;BME280;34681;49.188;-0.374;2024-02-15T02:20:25;101222.44;;;15.69;71.10
48862;BME280;34681;49.188;-0.374;2024-02-15T02:23:03;101219.50;;;15.70;71.18
48862;BME280;34681;49.188;-0.374;2024-02-15T02:25:32;101219.47;;;15.62;71.07
48862;BME280;34681;49.188;-0.374;2024-02-15T02:27:59;101210.53;;;15.68;70.96
48862;BME280;34681;49.188;-0.374;2024-02-15T02:30:24;101216.56;;;15.64;70.77
48862;BME280;34681;49.188;-0.374;2024-02-15T02:32:54;101207.56;;;15.62;70.80
48862;BME280;34681;49.188;-0.374;2024-02-15T02:35:19;101203.22;;;15.59;71.04
48862;BME280;34681;49.188;-0.374;2024-02-15T02:37:45;101202.19;;;15.60;71.16
48862;BME280;34681;49.188;-0.374;2024-02-15T02:40:11;101198.25;;;15.63;71.00
48862;BME280;34681;49.188;-0.374;2024-02-15T02:42:53;101188.81;;;15.65;71.02
48862;BME280;34681;49.188;-0.374;2024-02-15T02:45:21;101186.38;;;15.62;70.92
48862;BME280;34681;49.188;-0.374;2024-02-15T02:47:56;101199.84;;;15.65;70.87
48862;BME280;34681;49.188;-0.374;2024-02-15T02:50:22;101198.63;;;15.68;70.85
48862;BME280;34681;49.188;-0.374;2024-02-15T02:52:50;101192.19;;;15.59;70.96
48862;BME280;34681;49.188;-0.374;2024-02-15T02:55:16;101195.31;;;15.56;70.83
48862;BME280;34681;49.188;-0.374;2024-02-15T02:57:41;101187.41;;;15.61;70.72
48862;BME280;34681;49.188;-0.374;2024-02-15T03:00:09;101188.09;;;15.63;70.80
48862;BME280;34681;49.188;-0.374;2024-02-15T03:02:38;101183.94;;;15.59;70.52
48862;BME280;34681;49.188;-0.374;2024-02-15T03:05:04;101184.28;;;15.56;70.73
48862;BME280;34681;49.188;-0.374;2024-02-15T03:07:33;101184.09;;;15.58;70.88
48862;BME280;34681;49.188;-0.374;2024-02-15T03:09:59;101181.16;;;15.59;70.58
48862;BME280;34681;49.188;-0.374;2024-02-15T03:12:24;101179.44;;;15.58;70.54
48862;BME280;34681;49.188;-0.374;2024-02-15T03:14:51;101182.03;;;15.60;70.57
48862;BME280;34681;49.188;-0.374;2024-02-15T03:17:17;101171.34;;;15.57;70.60
48862;BME280;34681;49.188;-0.374;2024-02-15T03:19:42;101179.81;;;15.63;70.12
48862;BME280;34681;49.188;-0.374;2024-02-15T03:22:07;101176.19;;;15.63;70.19
48862;BME280;34681;49.188;-0.374;2024-02-15T03:24:33;101162.03;;;15.58;70.01
48862;BME280;34681;49.188;-0.374;2024-02-15T03:26:58;101163.94;;;15.57;70.16
48862;BME280;34681;49.188;-0.374;2024-02-15T03:29:24;101156.84;;;15.55;69.87
48862;BME280;34681;49.188;-0.374;2024-02-15T03:31:50;101158.06;;;15.52;69.71
48862;BME280;34681;49.188;-0.374;2024-02-15T03:34:18;101152.91;;;15.57;69.89
48862;BME280;34681;49.188;-0.374;2024-02-15T03:36:46;101158.41;;;15.57;69.69
48862;BME280;34681;49.188;-0.374;2024-02-15T03:39:13;101149.47;;;15.63;69.56
48862;BME280;34681;49.188;-0.374;2024-02-15T03:41:38;101141.53;;;15.60;69.49
48862;BME280;34681;49.188;-0.374;2024-02-15T03:44:04;101141.91;;;15.65;69.40
48862;BME280;34681;49.188;-0.374;2024-02-15T03:46:29;101145.97;;;15.53;69.56
48862;BME280;34681;49.188;-0.374;2024-02-15T03:48:55;101144.06;;;15.37;69.89
48862;BME280;34681;49.188;-0.374;2024-02-15T03:51:24;101143.72;;;15.40;69.98
48862;BME280;34681;49.188;-0.374;2024-02-15T03:53:50;101138.34;;;15.39;69.86
48862;BME280;34681;49.188;-0.374;2024-02-15T03:56:17;101139.22;;;15.23;70.24
48862;BME280;34681;49.188;-0.374;2024-02-15T03:58:42;101139.22;;;15.23;70.59
48862;BME280;34681;49.188;-0.374;2024-02-15T04:01:08;101141.63;;;15.34;70.48
48862;BME280;34681;49.188;-0.374;2024-02-15T04:03:35;101130.97;;;15.31;70.48
48862;BME280;34681;49.188;-0.374;2024-02-15T04:06:01;101129.94;;;15.32;70.58
48862;BME280;34681;49.188;-0.374;2024-02-15T04:08:26;101128.38;;;15.38;70.22
48862;BME280;34681;49.188;-0.374;2024-02-15T04:10:52;101133.38;;;15.34;70.30
48862;BME280;34681;49.188;-0.374;2024-02-15T04:13:18;101134.06;;;15.36;70.12
48862;BME280;34681;49.188;-0.374;2024-02-15T04:15:44;101120.81;;;15.40;70.01
48862;BME280;34681;49.188;-0.374;2024-02-15T04:18:12;101104.75;;;15.35;70.10
48862;BME280;34681;49.188;-0.374;2024-02-15T04:20:37;101101.78;;;15.21;70.44
48862;BME280;34681;49.188;-0.374;2024-02-15T04:23:03;101096.25;;;15.12;70.67
48862;BME280;34681;49.188;-0.374;2024-02-15T04:25:30;101091.59;;;15.05;70.97
48862;BME280;34681;49.188;-0.374;2024-02-15T04:27:56;101094.84;;;15.00;71.13
48862;BME280;34681;49.188;-0.374;2024-02-15T04:30:23;101093.00;;;14.67;72.55
48862;BME280;34681;49.188;-0.374;2024-02-15T04:32:49;101098.00;;;14.71;72.65
48862;BME280;34681;49.188;-0.374;2024-02-15T04:35:14;101096.72;;;14.92;72.00
48862;BME280;34681;49.188;-0.374;2024-02-15T04:37:39;101094.84;;;15.00;71.60
48862;BME280;34681;49.188;-0.374;2024-02-15T04:40:06;101098.44;;;14.93;71.83
48862;BME280;34681;49.188;-0.374;2024-02-15T04:42:39;101095.88;;;14.99;71.91
48862;BME280;34681;49.188;-0.374;2024-02-15T04:45:05;101101.91;;;15.03;71.59
48862;BME280;34681;49.188;-0.374;2024-02-15T04:47:38;101097.44;;;15.02;71.55
48862;BME280;34681;49.188;-0.374;2024-02-15T04:50:06;101091.75;;;15.03;71.38
48862;BME280;34681;49.188;-0.374;2024-02-15T04:52:32;101089.84;;;14.96;71.46
48862;BME280;34681;49.188;-0.374;2024-02-15T04:54:58;101094.00;;;15.00;71.43
48862;BME280;34681;49.188;-0.374;2024-02-15T04:57:26;101101.06;;;15.02;71.69
48862;BME280;34681;49.188;-0.374;2024-02-15T04:59:55;101087.69;;;14.73;72.27
48862;BME280;34681;49.188;-0.374;2024-02-15T05:02:21;101091.38;;;14.56;73.30
48862;BME280;34681;49.188;-0.374;2024-02-15T05:04:49;101085.94;;;14.72;72.88
48862;BME280;34681;49.188;-0.374;2024-02-15T05:07:20;101089.97;;;14.86;72.39
48862;BME280;34681;49.188;-0.374;2024-02-15T05:09:47;101081.22;;;14.91;72.25
48862;BME280;34681;49.188;-0.374;2024-02-15T05:12:21;101072.25;;;14.97;71.94
48862;BME280;34681;49.188;-0.374;2024-02-15T05:14:47;101074.50;;;14.93;72.09
48862;BME280;34681;49.188;-0.374;2024-02-15T05:17:13;101088.78;;;14.97;72.15
48862;BME280;34681;49.188;-0.374;2024-02-15T05:19:39;101073.13;;;14.97;72.19
48862;BME280;34681;49.188;-0.374;2024-02-15T05:22:04;101074.88;;;14.98;71.87
48862;BME280;34681;49.188;-0.374;2024-02-15T05:24:31;101079.31;;;14.91;71.96
48862;BME280;34681;49.188;-0.374;2024-02-15T05:26:56;101078.16;;;14.59;72.60
48862;BME280;34681;49.188;-0.374;2024-02-15T05:29:22;101079.06;;;14.42;73.40
48862;BME280;34681;49.188;-0.374;2024-02-15T05:31:48;101074.56;;;14.33;73.74
48862;BME280;34681;49.188;-0.374;2024-02-15T05:34:17;101065.75;;;14.03;74.85
48862;BME280;34681;49.188;-0.374;2024-02-15T05:36:42;101063.28;;;13.92;75.74
48862;BME280;34681;49.188;-0.374;2024-02-15T05:39:07;101067.88;;;14.10;75.10
48862;BME280;34681;49.188;-0.374;2024-02-15T05:41:33;101053.91;;;14.37;74.26
48862;BME280;34681;49.188;-0.374;2024-02-15T05:43:59;101043.56;;;14.31;74.07
48862;BME280;34681;49.188;-0.374;2024-02-15T05:46:25;101041.59;;;14.15;74.56
48862;BME280;34681;49.188;-0.374;2024-02-15T05:48:50;101041.22;;;14.10;74.58
48862;BME280;34681;49.188;-0.374;2024-02-15T05:51:16;101042.28;;;14.17;74.60
48862;BME280;34681;49.188;-0.374;2024-02-15T05:53:43;101033.28;;;14.07;74.70
48862;BME280;34681;49.188;-0.374;2024-02-15T05:56:09;101040.72;;;13.89;75.29
48862;BME280;34681;49.188;-0.374;2024-02-15T05:58:39;101032.03;;;13.75;75.83
48862;BME280;34681;49.188;-0.374;2024-02-15T06:01:07;101033.69;;;13.68;75.98
48862;BME280;34681;49.188;-0.374;2024-02-15T06:03:36;101026.19;;;13.78;75.85
48862;BME280;34681;49.188;-0.374;2024-02-15T06:06:05;101030.19;;;13.58;76.63
48862;BME280;34681;49.188;-0.374;2024-02-15T06:08:34;101033.69;;;13.68;76.37
48862;BME280;34681;49.188;-0.374;2024-02-15T06:10:59;101015.88;;;13.55;76.59
48862;BME280;34681;49.188;-0.374;2024-02-15T06:13:25;101027.03;;;13.17;78.16
48862;BME280;34681;49.188;-0.374;2024-02-15T06:15:52;101019.09;;;13.14;78.60
48862;BME280;34681;49.188;-0.374;2024-02-15T06:18:20;101015.50;;;13.32;77.96
48862;BME280;34681;49.188;-0.374;2024-02-15T06:20:47;101007.81;;;13.35;77.94
48862;BME280;34681;49.188;-0.374;2024-02-15T06:23:23;101007.59;;;13.72;76.87
48862;BME280;34681;49.188;-0.374;2024-02-15T06:25:51;101006.84;;;13.88;76.27
48862;BME280;34681;49.188;-0.374;2024-02-15T06:28:18;100996.22;;;13.93;75.86
48862;BME280;34681;49.188;-0.374;2024-02-15T06:31:02;100992.84;;;13.99;75.67
48862;BME280;34681;49.188;-0.374;2024-02-15T06:33:46;100994.34;;;13.94;75.47
48862;BME280;34681;49.188;-0.374;2024-02-15T06:36:30;100993.41;;;13.85;75.43
48862;BME280;34681;49.188;-0.374;2024-02-15T06:39:14;100982.41;;;13.59;76.13
48862;BME280;34681;49.188;-0.374;2024-02-15T06:41:58;100992.16;;;13.54;76.30
48862;BME280;34681;49.188;-0.374;2024-02-15T06:44:23;100984.50;;;13.21;77.24
48862;BME280;34681;49.188;-0.374;2024-02-15T06:46:49;100984.91;;;13.27;77.63
48862;BME280;34681;49.188;-0.374;2024-02-15T06:49:15;100981.97;;;13.46;77.18
48862;BME280;34681;49.188;-0.374;2024-02-15T06:51:41;100979.66;;;13.59;76.53
48862;BME280;34681;49.188;-0.374;2024-02-15T06:54:07;100981.38;;;13.34;76.95
48862;BME280;34681;49.188;-0.374;2024-02-15T06:56:36;100964.63;;;13.10;78.13
48862;BME280;34681;49.188;-0.374;2024-02-15T06:59:02;100960.16;;;13.09;77.96
48862;BME280;34681;49.188;-0.374;2024-02-15T07:01:27;100970.75;;;12.86;78.79
48862;BME280;34681;49.188;-0.374;2024-02-15T07:03:53;100971.16;;;12.91;78.84
48862;BME280;34681;49.188;-0.374;2024-02-15T07:06:18;100972.00;;;12.91;78.74
48862;BME280;34681;49.188;-0.374;2024-02-15T07:08:44;100970.81;;;12.76;79.20
48862;BME280;34681;49.188;-0.374;2024-02-15T07:11:09;100965.94;;;12.70;79.36
48862;BME280;34681;49.188;-0.374;2024-02-15T07:13:37;100965.72;;;12.81;79.39
48862;BME280;34681;49.188;-0.374;2024-02-15T07:16:07;100961.81;;;12.84;79.43
48862;BME280;34681;49.188;-0.374;2024-02-15T07:18:32;100960.09;;;13.01;78.84
48862;BME280;34681;49.188;-0.374;2024-02-15T07:20:58;100962.66;;;13.02;79.04
48862;BME280;34681;49.188;-0.374;2024-02-15T07:23:25;100965.16;;;13.13;78.24
48862;BME280;34681;49.188;-0.374;2024-02-15T07:25:50;100965.31;;;13.12;77.92
48862;BME280;34681;49.188;-0.374;2024-02-15T07:28:19;100954.78;;;13.07;78.15
48862;BME280;34681;49.188;-0.374;2024-02-15T07:30:44;100953.06;;;13.06;78.12
48862;BME280;34681;49.188;-0.374;2024-02-15T07:33:11;100952.38;;;13.22;77.26
48862;BME280;34681;49.188;-0.374;2024-02-15T07:35:36;100952.53;;;13.03;77.64
48862;BME280;34681;49.188;-0.374;2024-02-15T07:38:02;100952.47;;;12.94;78.03
48862;BME280;34681;49.188;-0.374;2024-02-15T07:40:30;100947.06;;;13.20;77.68
48862;BME280;34681;49.188;-0.374;2024-02-15T07:42:58;100949.78;;;13.64;76.58
48862;BME280;34681;49.188;-0.374;2024-02-15T07:45:24;100957.56;;;13.69;75.63
48862;BME280;34681;49.188;-0.374;2024-02-15T07:47:49;100954.88;;;13.77;75.13
48862;BME280;34681;49.188;-0.374;2024-02-15T07:50:16;100956.00;;;13.92;74.78
48862;BME280;34681;49.188;-0.374;2024-02-15T07:52:45;100951.34;;;13.93;74.45
48862;BME280;34681;49.188;-0.374;2024-02-15T07:55:10;100949.59;;;14.18;74.12
48862;BME280;34681;49.188;-0.374;2024-02-15T07:57:36;100949.69;;;14.42;73.30
48862;BME280;34681;49.188;-0.374;2024-02-15T08:00:01;100954.44;;;14.66;72.63
48862;BME280;34681;49.188;-0.374;2024-02-15T08:02:30;100950.50;;;14.85;72.39
48862;BME280;34681;49.188;-0.374;2024-02-15T08:04:56;100959.66;;;15.02;71.81
48862;BME280;34681;49.188;-0.374;2024-02-15T08:07:21;100960.53;;;15.27;71.20
48862;BME280;34681;49.188;-0.374;2024-02-15T08:09:47;100947.78;;;15.50;71.00
48862;BME280;34681;49.188;-0.374;2024-02-15T08:12:15;100936.75;;;15.66;70.58
48862;BME280;34681;49.188;-0.374;2024-02-15T08:14:41;100938.63;;;15.82;70.06
48862;BME280;34681;49.188;-0.374;2024-02-15T08:17:07;100939.63;;;15.97;69.72
48862;BME280;34681;49.188;-0.374;2024-02-15T08:19:33;100936.66;;;16.07;69.65
48862;BME280;34681;49.188;-0.374;2024-02-15T08:22:06;100941.78;;;16.18;69.08
48862;BME280;34681;49.188;-0.374;2024-02-15T08:24:31;100942.47;;;16.20;68.24
48862;BME280;34681;49.188;-0.374;2024-02-15T08:26:56;100940.84;;;16.34;67.54
48862;BME280;34681;49.188;-0.374;2024-02-15T08:29:25;100945.25;;;16.51;67.59
48862;BME280;34681;49.188;-0.374;2024-02-15T08:31:50;100940.06;;;16.56;66.65
48862;BME280;34681;49.188;-0.374;2024-02-15T08:34:15;100945.78;;;16.55;65.62
48862;BME280;34681;49.188;-0.374;2024-02-15T08:36:43;100938.16;;;16.57;64.86
48862;BME280;34681;49.188;-0.374;2024-02-15T08:39:09;100936.03;;;16.67;64.16
48862;BME280;34681;49.188;-0.374;2024-02-15T08:41:39;100922.00;;;16.38;64.01
48862;BME280;34681;49.188;-0.374;2024-02-15T08:44:05;100918.69;;;16.11;64.79
48862;BME280;34681;49.188;-0.374;2024-02-15T08:46:35;100910.50;;;15.87;65.58
48862;BME280;34681;49.188;-0.374;2024-02-15T08:49:01;100912.41;;;15.86;65.85
48862;BME280;34681;49.188;-0.374;2024-02-15T08:51:28;100903.03;;;16.04;65.44
48862;BME280;34681;49.188;-0.374;2024-02-15T08:53:55;100898.72;;;16.01;65.21
48862;BME280;34681;49.188;-0.374;2024-02-15T08:56:20;100900.13;;;16.36;65.12
48862;BME280;34681;49.188;-0.374;2024-02-15T08:58:45;100896.69;;;16.34;64.67
48862;BME280;34681;49.188;-0.374;2024-02-15T09:01:11;100895.91;;;16.48;64.42
48862;BME280;34681;49.188;-0.374;2024-02-15T09:03:38;100889.91;;;16.68;64.32
48862;BME280;34681;49.188;-0.374;2024-02-15T09:06:03;100878.72;;;16.61;63.84
48862;BME280;34681;49.188;-0.374;2024-02-15T09:08:30;100863.72;;;16.64;63.48
48862;BME280;34681;49.188;-0.374;2024-02-15T09:10:55;100850.22;;;16.69;63.40
48862;BME280;34681;49.188;-0.374;2024-02-15T09:13:20;100856.28;;;16.64;63.62
48862;BME280;34681;49.188;-0.374;2024-02-15T09:15:47;100848.16;;;16.63;63.77
48862;BME280;34681;49.188;-0.374;2024-02-15T09:18:13;100849.75;;;16.88;63.44
48862;BME280;34681;49.188;-0.374;2024-02-15T09:20:38;100837.19;;;17.00;62.86
48862;BME280;34681;49.188;-0.374;2024-02-15T09:23:09;100836.84;;;17.18;61.74
48862;BME280;34681;49.188;-0.374;2024-02-15T09:25:40;100834.44;;;17.38;61.92
48862;BME280;34681;49.188;-0.374;2024-02-15T09:28:09;100832.69;;;17.52;61.45
48862;BME280;34681;49.188;-0.374;2024-02-15T09:30:34;100834.72;;;17.58;60.95
48862;BME280;34681;49.188;-0.374;2024-02-15T09:33:00;100831.28;;;17.71;60.82
48862;BME280;34681;49.188;-0.374;2024-02-15T09:35:26;100821.69;;;17.81;60.45
48862;BME280;34681;49.188;-0.374;2024-02-15T09:37:52;100818.72;;;17.83;60.20
48862;BME280;34681;49.188;-0.374;2024-02-15T09:40:18;100821.78;;;17.73;59.68
48862;BME280;34681;49.188;-0.374;2024-02-15T09:42:45;100822.72;;;17.80;60.14
48862;BME280;34681;49.188;-0.374;2024-02-15T09:45:12;100814.22;;;17.82;59.41
48862;BME280;34681;49.188;-0.374;2024-02-15T09:47:42;100822.13;;;17.85;59.87
48862;BME280;34681;49.188;-0.374;2024-02-15T09:50:08;100817.66;;;17.84;59.72
48862;BME280;34681;49.188;-0.374;2024-02-15T09:52:38;100819.94;;;17.65;59.63
48862;BME280;34681;49.188;-0.374;2024-02-15T09:55:04;100824.75;;;17.72;60.10
48862;BME280;34681;49.188;-0.374;2024-02-15T09:57:30;100821.44;;;17.68;60.10
48862;BME280;34681;49.188;-0.374;2024-02-15T09:59:58;100813.75;;;17.63;59.99
48862;BME280;34681;49.188;-0.374;2024-02-15T10:02:26;100814.09;;;17.60;59.84
48862;BME280;34681;49.188;-0.374;2024-02-15T10:04:53;100810.66;;;17.44;59.86
48862;BME280;34681;49.188;-0.374;2024-02-15T10:07:18;100800.75;;;17.34;60.45
48862;BME280;34681;49.188;-0.374;2024-02-15T10:09:43;100794.53;;;17.18;60.59
48862;BME280;34681;49.188;-0.374;2024-02-15T10:12:09;100785.25;;;17.10;60.52
48862;BME280;34681;49.188;-0.374;2024-02-15T10:14:35;100785.56;;;17.16;60.95
48862;BME280;34681;49.188;-0.374;2024-02-15T10:17:07;100785.84;;;17.21;61.03
48862;BME280;34681;49.188;-0.374;2024-02-15T10:19:37;100789.50;;;17.21;61.21
48862;BME280;34681;49.188;-0.374;2024-02-15T10:22:07;100788.53;;;17.14;61.13
48862;BME280;34681;49.188;-0.374;2024-02-15T10:24:33;100781.53;;;17.03;61.42
48862;BME280;34681;49.188;-0.374;2024-02-15T10:27:02;100784.03;;;16.98;61.79
48862;BME280;34681;49.188;-0.374;2024-02-15T10:29:32;100773.53;;;17.08;61.80
48862;BME280;34681;49.188;-0.374;2024-02-15T10:32:00;100774.44;;;17.24;61.79
48862;BME280;34681;49.188;-0.374;2024-02-15T10:34:26;100768.69;;;17.69;61.13
48862;BME280;34681;49.188;-0.374;2024-02-15T10:36:55;100774.63;;;18.17;59.95
48862;BME280;34681;49.188;-0.374;2024-02-15T10:39:35;100781.38;;;18.51;59.28
48862;BME280;34681;49.188;-0.374;2024-02-15T10:42:00;100769.13;;;18.82;58.33
48862;BME280;34681;49.188;-0.374;2024-02-15T10:44:25;100769.06;;;18.96;57.44
48862;BME280;34681;49.188;-0.374;2024-02-15T10:46:52;100769.19;;;19.16;57.12
48862;BME280;34681;49.188;-0.374;2024-02-15T10:49:22;100774.69;;;19.38;56.98
48862;BME280;34681;49.188;-0.374;2024-02-15T10:51:57;100770.44;;;19.70;56.28
48862;BME280;34681;49.188;-0.374;2024-02-15T10:57:26;100778.72;;;19.63;55.26
48862;BME280;34681;49.188;-0.374;2024-02-15T10:59:58;100769.88;;;19.94;55.15
48862;BME280;34681;49.188;-0.374;2024-02-15T11:02:30;100766.91;;;19.96;54.42
48862;BME280;34681;49.188;-0.374;2024-02-15T11:05:08;100757.09;;;20.00;54.87
48862;BME280;34681;49.188;-0.374;2024-02-15T11:07:37;100758.25;;;19.77;55.16
48862;BME280;34681;49.188;-0.374;2024-02-15T11:10:06;100761.72;;;19.79;55.15
48862;BME280;34681;49.188;-0.374;2024-02-15T11:12:36;100763.28;;;19.95;54.78
48862;BME280;34681;49.188;-0.374;2024-02-15T11:15:02;100756.03;;;20.07;54.67
48862;BME280;34681;49.188;-0.374;2024-02-15T11:20:08;100734.72;;;20.34;53.07
48862;BME280;34681;49.188;-0.374;2024-02-15T11:22:35;100730.91;;;20.29;52.98
48862;BME280;34681;49.188;-0.374;2024-02-15T11:25:03;100725.50;;;20.07;53.21
48862;BME280;34681;49.188;-0.374;2024-02-15T11:27:34;100721.31;;;19.77;53.95
48862;BME280;34681;49.188;-0.374;2024-02-15T11:30:02;100733.34;;;19.49;54.46
48862;BME280;34681;49.188;-0.374;2024-02-15T11:32:49;100723.44;;;19.33;55.00
48862;BME280;34681;49.188;-0.374;2024-02-15T11:40:26;100707.38;;;18.94;55.81
48862;BME280;34681;49.188;-0.374;2024-02-15T11:42:57;100698.41;;;18.92;55.74
48862;BME280;34681;49.188;-0.374;2024-02-15T11:45:24;100703.53;;;18.89;55.72
48862;BME280;34681;49.188;-0.374;2024-02-15T11:47:52;100694.47;;;19.08;55.48
48862;BME280;34681;49.188;-0.374;2024-02-15T11:50:20;100687.41;;;19.40;55.10
48862;BME280;34681;49.188;-0.374;2024-02-15T11:52:50;100679.69;;;19.77;54.05
48862;BME280;34681;49.188;-0.374;2024-02-15T11:55:22;100659.88;;;19.93;53.53
48862;BME280;34681;49.188;-0.374;2024-02-15T11:58:01;100664.63;;;20.12;53.29
48862;BME280;34681;49.188;-0.374;2024-02-15T12:00:36;100661.41;;;20.15;53.07
48862;BME280;34681;49.188;-0.374;2024-02-15T12:03:21;100640.50;;;20.19;52.05
48862;BME280;34681;49.188;-0.374;2024-02-15T12:06:05;100638.56;;;20.33;52.40
48862;BME280;34681;49.188;-0.374;2024-02-15T12:08:52;100621.91;;;20.33;51.40
48862;BME280;34681;49.188;-0.374;2024-02-15T12:11:37;100622.34;;;20.30;51.96
48862;BME280;34681;49.188;-0.374;2024-02-15T12:14:21;100615.94;;;20.30;51.88
48862;BME280;34681;49.188;-0.374;2024-02-15T12:17:07;100611.22;;;20.30;52.12
48862;BME280;34681;49.188;-0.374;2024-02-15T12:19:53;100608.84;;;20.34;51.95
48862;BME280;34681;49.188;-0.374;2024-02-15T12:27:20;100591.78;;;20.50;51.58
48862;BME280;34681;49.188;-0.374;2024-02-15T12:29:52;100582.38;;;20.38;51.58
48862;BME280;34681;49.188;-0.374;2024-02-15T12:32:25;100586.88;;;20.45;51.80
48862;BME280;34681;49.188;-0.374;2024-02-15T12:34:51;100594.16;;;20.53;51.75
48862;BME280;34681;49.188;-0.374;2024-02-15T12:37:20;100596.47;;;20.63;51.98
48862;BME280;34681;49.188;-0.374;2024-02-15T12:39:47;100598.81;;;20.66;51.76
48862;BME280;34681;49.188;-0.374;2024-02-15T12:42:13;100592.63;;;20.57;51.78
48862;BME280;34681;49.188;-0.374;2024-02-15T12:44:43;100577.88;;;20.57;52.08
48862;BME280;34681;49.188;-0.374;2024-02-15T12:47:17;100558.19;;;20.71;51.42
48862;BME280;34681;49.188;-0.374;2024-02-15T12:49:43;100564.16;;;20.75;51.37
48862;BME280;34681;49.188;-0.374;2024-02-15T12:52:37;100565.81;;;20.96;51.53
48862;BME280;34681;49.188;-0.374;2024-02-15T12:55:11;100566.84;;;21.01;50.98
48862;BME280;34681;49.188;-0.374;2024-02-15T12:57:36;100567.75;;;20.89;51.42
48862;BME280;34681;49.188;-0.374;2024-02-15T13:00:03;100563.69;;;20.91;51.72